createdAt,value
2023-04-22T00:01:19.540Z,60.30
2023-04-22T00:03:47.256Z,63.64
2023-04-22T00:06:14.571Z,65.75
2023-04-22T00:08:41.712Z,69.54
2023-04-22T00:11:09.195Z,70.60
2023-04-22T00:13:37.147Z,69.85
2023-04-22T00:16:04.752Z,68.88
2023-04-22T00:18:34.321Z,67.51
2023-04-22T00:21:01.652Z,70.18
2023-04-22T00:23:28.850Z,70.40
2023-04-22T00:25:56.271Z,70.68
2023-04-22T00:28:23.463Z,69.28
2023-04-22T00:30:50.899Z,68.09
2023-04-22T00:33:18.350Z,66.03
2023-04-22T00:35:46.279Z,65.89
2023-04-22T00:38:13.472Z,66.55
2023-04-22T00:40:40.947Z,68.02
2023-04-22T00:43:08.576Z,69.50
2023-04-22T00:45:36.714Z,69.01
2023-04-22T00:48:04.225Z,69.35
2023-04-22T00:50:31.428Z,68.95
2023-04-22T00:52:58.582Z,70.25
2023-04-22T00:55:26.091Z,70.86
2023-04-22T00:57:53.253Z,70.59
2023-04-22T01:00:23.948Z,72.72
2023-04-22T01:02:51.526Z,70.61
2023-04-22T01:05:18.890Z,67.04
2023-04-22T01:07:46.293Z,68.32
2023-04-22T01:10:13.771Z,70.52
2023-04-22T01:12:40.960Z,70.17
2023-04-22T01:15:08.882Z,64.84
2023-04-22T01:17:36.458Z,61.96
2023-04-22T01:20:10.112Z,61.41
2023-04-22T01:22:40.659Z,61.90
2023-04-22T01:25:08.819Z,62.01
2023-04-22T01:27:36.248Z,65.25
2023-04-22T01:30:04.497Z,67.93
2023-04-22T01:32:32.329Z,69.69
2023-04-22T01:34:59.564Z,71.66
2023-04-22T01:37:26.965Z,73.59
2023-04-22T01:39:54.138Z,74.27
2023-04-22T01:42:21.568Z,75.94
2023-04-22T01:44:48.967Z,77.58
2023-04-22T01:47:16.094Z,76.79
2023-04-22T01:49:43.362Z,75.81
2023-04-22T01:52:12.300Z,74.90
2023-04-22T01:54:39.413Z,73.15
2023-04-22T01:57:08.441Z,72.57
2023-04-22T01:59:35.876Z,74.90
2023-04-22T02:02:03.110Z,73.82
2023-04-22T02:04:30.614Z,72.77
2023-04-22T02:06:57.992Z,70.78
2023-04-22T02:09:25.198Z,67.91
2023-04-22T02:11:52.625Z,69.58
2023-04-22T02:14:23.782Z,68.59
2023-04-22T02:16:51.815Z,70.14
2023-04-22T02:19:19.244Z,68.22
2023-04-22T02:21:46.379Z,67.10
2023-04-22T02:24:13.551Z,67.67
2023-04-22T02:26:41.565Z,69.30
2023-04-22T02:29:08.810Z,70.22
2023-04-22T02:31:36.001Z,71.37
2023-04-22T02:34:03.595Z,71.16
2023-04-22T02:36:31.963Z,73.09
2023-04-22T02:38:59.348Z,72.23
2023-04-22T02:41:26.812Z,70.31
2023-04-22T02:43:54.077Z,72.12
2023-04-22T02:46:21.259Z,73.46
2023-04-22T02:48:49.420Z,75.40
2023-04-22T02:51:16.583Z,76.84
2023-04-22T02:53:43.735Z,75.40
2023-04-22T02:56:11.279Z,77.03
2023-04-22T02:58:38.421Z,76.37
2023-04-22T03:01:05.797Z,74.16
2023-04-22T03:03:33.484Z,73.10
2023-04-22T03:06:00.933Z,71.43
2023-04-22T03:08:28.446Z,69.13
2023-04-22T03:10:55.867Z,68.84
2023-04-22T03:13:23.002Z,68.79
2023-04-22T03:15:51.086Z,67.81
2023-04-22T03:18:19.805Z,69.21
2023-04-22T03:20:47.121Z,70.56
2023-04-22T03:23:15.333Z,74.72
2023-04-22T03:25:42.831Z,76.51
2023-04-22T03:28:09.980Z,79.48
2023-04-22T03:30:37.198Z,77.88
2023-04-22T03:33:04.688Z,79.00
2023-04-22T03:35:32.306Z,78.24
2023-04-22T03:37:59.841Z,78.03
2023-04-22T03:40:27.519Z,79.85
2023-04-22T03:42:55.126Z,79.90
2023-04-22T03:45:23.225Z,79.05
2023-04-22T03:47:51.587Z,78.14
2023-04-22T03:50:19.869Z,74.46
2023-04-22T03:52:47.804Z,71.21
2023-04-22T03:55:17.836Z,70.69
2023-04-22T03:57:45.913Z,71.51
2023-04-22T04:00:13.221Z,71.35
2023-04-22T04:02:41.794Z,71.12
2023-04-22T04:05:11.482Z,71.53
2023-04-22T04:07:38.876Z,70.17
2023-04-22T04:10:07.490Z,68.57
2023-04-22T04:12:35.091Z,68.86
2023-04-22T04:15:02.404Z,70.80
2023-04-22T04:17:30.612Z,72.53
2023-04-22T04:19:58.800Z,72.47
2023-04-22T04:22:28.027Z,72.84
2023-04-22T04:24:56.161Z,74.21
2023-04-22T04:27:24.861Z,75.10
2023-04-22T04:29:52.659Z,74.56
2023-04-22T04:32:20.108Z,75.71
2023-04-22T04:34:48.990Z,74.31
2023-04-22T04:37:16.891Z,73.96
2023-04-22T04:39:44.795Z,74.30
2023-04-22T04:42:14.407Z,74.22
2023-04-22T04:44:42.276Z,71.20
2023-04-22T04:47:09.554Z,71.21
2023-04-22T04:49:40.601Z,71.46
2023-04-22T04:52:10.322Z,72.39
2023-04-22T04:54:38.328Z,72.29
2023-04-22T04:57:06.041Z,75.67
2023-04-22T04:59:33.414Z,76.37
2023-04-22T05:02:01.145Z,74.96
2023-04-22T05:04:29.382Z,74.32
2023-04-22T05:06:57.331Z,73.08
2023-04-22T05:09:25.182Z,71.51
2023-04-22T05:11:52.466Z,72.21
2023-04-22T05:14:20.288Z,71.01
2023-04-22T05:16:47.917Z,68.61
2023-04-22T05:19:15.256Z,65.47
2023-04-22T05:21:42.629Z,65.96
2023-04-22T05:24:10.354Z,68.66
2023-04-22T05:26:37.687Z,69.76
2023-04-22T05:29:08.055Z,68.83
2023-04-22T05:31:35.605Z,68.89
2023-04-22T05:34:02.817Z,67.78
2023-04-22T05:36:31.617Z,68.06
2023-04-22T05:38:59.314Z,68.01
2023-04-22T05:41:27.465Z,67.26
2023-04-22T05:43:55.602Z,67.35
2023-04-22T05:46:23.363Z,66.64
2023-04-22T05:48:51.320Z,64.53
2023-04-22T05:51:19.387Z,63.08
2023-04-22T05:53:46.825Z,61.58
2023-04-22T05:56:14.050Z,60.83
2023-04-22T05:58:41.214Z,59.74
2023-04-22T06:01:09.218Z,58.39
2023-04-22T06:03:38.259Z,55.28
2023-04-22T06:06:06.481Z,56.22
2023-04-22T06:08:33.703Z,57.83
2023-04-22T06:11:01.109Z,58.52
2023-04-22T06:13:28.687Z,57.88
2023-04-22T06:15:56.022Z,56.70
2023-04-22T06:18:23.465Z,53.08
2023-04-22T06:20:51.688Z,52.36
2023-04-22T06:23:18.929Z,52.70
2023-04-22T06:25:47.553Z,54.37
2023-04-22T06:28:14.945Z,54.31
2023-04-22T06:30:43.856Z,54.83
2023-04-22T06:33:11.599Z,52.51
2023-04-22T06:35:39.334Z,51.88
2023-04-22T06:38:06.549Z,51.05
2023-04-22T06:40:34.701Z,50.91
2023-04-22T06:43:02.511Z,51.34
2023-04-22T06:45:34.101Z,50.77
2023-04-22T06:48:01.989Z,51.86
2023-04-22T06:50:29.395Z,51.80
2023-04-22T06:52:57.956Z,51.27
2023-04-22T06:55:25.152Z,50.69
2023-04-22T06:57:52.401Z,49.75
2023-04-22T07:00:19.866Z,48.62
2023-04-22T07:02:47.209Z,45.45
2023-04-22T07:05:15.602Z,44.51
2023-04-22T07:07:43.240Z,45.94
2023-04-22T07:10:13.709Z,46.11
2023-04-22T07:12:41.370Z,42.24
2023-04-22T07:15:08.849Z,42.00
2023-04-22T07:17:36.102Z,39.01
2023-04-22T07:20:03.803Z,38.81
2023-04-22T07:22:31.270Z,37.38
2023-04-22T07:24:58.421Z,37.89
2023-04-22T07:27:25.718Z,37.25
2023-04-22T07:29:53.224Z,36.18
2023-04-22T07:32:20.404Z,35.71
2023-04-22T07:34:47.584Z,34.60
2023-04-22T07:37:14.961Z,33.01
2023-04-22T07:39:42.378Z,31.16
2023-04-22T07:42:09.690Z,30.83
2023-04-22T07:44:39.355Z,28.15
2023-04-22T07:47:08.517Z,25.93
2023-04-22T07:49:35.871Z,24.37
2023-04-22T07:52:03.455Z,22.91
2023-04-22T07:54:30.687Z,22.49
2023-04-22T07:56:58.395Z,21.09
2023-04-22T07:59:25.872Z,21.84
2023-04-22T08:01:53.166Z,21.98
2023-04-22T08:04:23.026Z,22.46
2023-04-22T08:06:50.432Z,22.02
2023-04-22T08:09:17.590Z,23.08
2023-04-22T08:11:45.094Z,23.31
2023-04-22T08:14:12.225Z,25.69
2023-04-22T08:16:39.680Z,24.60
2023-04-22T08:19:07.141Z,25.30
2023-04-22T08:21:37.102Z,22.79
2023-04-22T08:24:06.186Z,24.98
2023-04-22T08:26:33.660Z,24.23
2023-04-22T08:29:01.256Z,23.09
2023-04-22T08:31:28.767Z,24.38
2023-04-22T08:33:56.528Z,24.87
2023-04-22T08:36:25.933Z,25.05
2023-04-22T08:38:53.212Z,22.68
2023-04-22T08:41:21.750Z,22.61
2023-04-22T08:43:49.372Z,23.57
2023-04-22T08:46:17.614Z,23.36
2023-04-22T08:48:45.101Z,24.73
2023-04-22T08:51:12.419Z,23.83
2023-04-22T08:53:39.578Z,23.77
2023-04-22T08:56:06.987Z,23.16
2023-04-22T08:58:34.698Z,23.47
2023-04-22T09:01:03.468Z,23.07
2023-04-22T09:03:31.619Z,23.82
2023-04-22T09:05:58.829Z,23.02
2023-04-22T09:08:26.616Z,24.71
2023-04-22T09:10:54.041Z,26.09
2023-04-22T09:13:21.564Z,25.38
2023-04-22T09:15:48.749Z,25.27
2023-04-22T09:18:18.832Z,26.53
2023-04-22T09:20:49.477Z,24.86
2023-04-22T09:23:16.951Z,26.44
2023-04-22T09:25:44.941Z,29.16
2023-04-22T09:28:12.800Z,26.58
2023-04-22T09:30:40.421Z,25.01
2023-04-22T09:33:07.989Z,25.51
2023-04-22T09:35:36.196Z,25.56
2023-04-22T09:38:04.855Z,25.21
2023-04-22T09:40:32.059Z,25.42
2023-04-22T09:43:00.066Z,24.98
2023-04-22T09:45:28.908Z,26.69
2023-04-22T09:47:57.013Z,26.99
2023-04-22T09:50:24.623Z,25.08
2023-04-22T09:52:59.564Z,24.55
2023-04-22T09:55:27.641Z,24.16
2023-04-22T09:57:55.870Z,23.67
2023-04-22T10:00:24.450Z,25.43
2023-04-22T10:02:52.031Z,23.61
2023-04-22T10:05:19.473Z,22.55
2023-04-22T10:07:46.676Z,24.81
2023-04-22T10:10:14.281Z,21.83
2023-04-22T10:12:41.424Z,22.45
2023-04-22T10:15:08.868Z,21.87
2023-04-22T10:17:38.935Z,22.73
2023-04-22T10:20:13.485Z,21.87
2023-04-22T10:22:41.979Z,22.33
2023-04-22T10:25:29.125Z,21.78
2023-04-22T10:28:06.297Z,21.85
2023-04-22T10:30:34.581Z,21.65
2023-04-22T10:33:39.170Z,22.20
2023-04-22T10:36:10.441Z,23.23
2023-04-22T10:38:38.397Z,21.80
2023-04-22T10:41:05.531Z,21.88
2023-04-22T10:43:42.792Z,22.38
2023-04-22T10:46:29.082Z,21.38
2023-04-22T10:48:59.487Z,21.09
2023-04-22T10:51:39.329Z,21.29
2023-04-22T10:54:06.831Z,20.98
2023-04-22T10:56:35.395Z,22.01
2023-04-22T10:59:15.536Z,21.97
2023-04-22T11:01:43.135Z,22.13
2023-04-22T11:04:20.420Z,23.69
2023-04-22T11:07:08.267Z,23.33
2023-04-22T11:09:39.456Z,25.76
2023-04-22T11:12:26.115Z,25.61
2023-04-22T11:14:53.276Z,26.75
2023-04-22T11:17:20.860Z,28.18
2023-04-22T11:19:48.091Z,28.56
2023-04-22T11:22:15.336Z,28.75
2023-04-22T11:24:53.292Z,29.22
2023-04-22T11:27:26.234Z,30.09
2023-04-22T11:30:08.108Z,29.74
2023-04-22T11:32:36.110Z,29.99
2023-04-22T11:35:07.359Z,30.36
2023-04-22T11:37:40.348Z,29.98
2023-04-22T11:40:27.944Z,29.64
2023-04-22T11:42:56.527Z,31.42
2023-04-22T11:45:24.164Z,30.00
2023-04-22T11:47:51.529Z,29.52
2023-04-22T11:50:22.091Z,31.00
2023-04-22T11:52:50.361Z,26.83
2023-04-22T11:55:27.130Z,27.77
2023-04-22T11:58:01.232Z,27.43
2023-04-22T12:00:32.953Z,27.39
2023-04-22T12:03:03.348Z,26.24
2023-04-22T12:05:33.972Z,26.15
2023-04-22T12:08:03.563Z,25.86
2023-04-22T12:10:30.855Z,25.27
2023-04-22T12:12:58.030Z,27.49
2023-04-22T12:15:25.686Z,26.93
2023-04-22T12:17:52.995Z,27.84
2023-04-22T12:20:20.220Z,28.22
2023-04-22T12:22:47.739Z,27.35
2023-04-22T12:25:17.708Z,28.00
2023-04-22T12:27:44.908Z,26.58
2023-04-22T12:30:12.648Z,27.89
2023-04-22T12:32:39.919Z,29.06
2023-04-22T12:35:08.598Z,29.50
2023-04-22T12:37:36.162Z,28.38
2023-04-22T12:40:04.407Z,29.13
2023-04-22T12:42:31.735Z,29.17
2023-04-22T12:44:59.244Z,28.35
2023-04-22T12:47:26.425Z,27.69
2023-04-22T12:49:53.588Z,27.53
2023-04-22T12:52:21.300Z,28.94
2023-04-22T12:54:49.199Z,26.71
2023-04-22T12:57:16.383Z,26.25
2023-04-22T12:59:45.343Z,29.51
2023-04-22T13:02:12.715Z,27.28
2023-04-22T13:04:40.109Z,28.98
2023-04-22T13:07:07.561Z,27.78
2023-04-22T13:09:34.690Z,26.68
2023-04-22T13:12:03.390Z,25.95
2023-04-22T13:14:30.894Z,25.07
2023-04-22T13:16:58.084Z,26.25
2023-04-22T13:19:27.019Z,24.77
2023-04-22T13:21:54.695Z,23.29
2023-04-22T13:24:22.305Z,23.41
2023-04-22T13:26:49.495Z,23.39
2023-04-22T13:29:16.990Z,24.47
2023-04-22T13:31:44.801Z,26.28
2023-04-22T13:34:12.131Z,25.31
2023-04-22T13:36:39.651Z,28.78
2023-04-22T13:39:07.194Z,25.96
2023-04-22T13:41:34.657Z,26.62
2023-04-22T13:44:03.908Z,27.19
2023-04-22T13:46:31.087Z,25.82
2023-04-22T13:48:58.680Z,26.26
2023-04-22T13:51:26.149Z,24.58
2023-04-22T13:53:53.324Z,25.01
2023-04-22T13:56:20.500Z,25.57
2023-04-22T13:58:48.011Z,25.69
2023-04-22T14:01:15.192Z,25.56
2023-04-22T14:03:42.747Z,27.40
2023-04-22T14:06:09.951Z,25.46
2023-04-22T14:08:37.602Z,26.15
2023-04-22T14:11:06.417Z,26.72
2023-04-22T14:13:33.550Z,25.56
2023-04-22T14:16:01.222Z,24.28
2023-04-22T14:18:28.924Z,25.61
2023-04-22T14:20:56.916Z,24.73
2023-04-22T14:23:24.377Z,24.71
2023-04-22T14:25:51.900Z,24.55
2023-04-22T14:28:19.051Z,24.63
2023-04-22T14:30:46.195Z,24.55
2023-04-22T14:33:13.705Z,24.07
2023-04-22T14:35:40.966Z,24.06
2023-04-22T14:38:10.078Z,24.90
2023-04-22T14:40:37.912Z,23.77
2023-04-22T14:43:05.705Z,24.05
2023-04-22T14:45:33.229Z,25.07
2023-04-22T14:48:00.900Z,24.75
2023-04-22T14:50:28.183Z,24.43
2023-04-22T14:52:55.523Z,26.20
2023-04-22T14:55:24.167Z,24.31
2023-04-22T14:57:57.846Z,23.93
2023-04-22T15:00:25.630Z,25.11
2023-04-22T15:02:54.159Z,23.47
2023-04-22T15:05:23.481Z,23.48
2023-04-22T15:07:51.341Z,22.99
2023-04-22T15:10:18.574Z,23.92
2023-04-22T15:12:45.988Z,24.47
2023-04-22T15:15:15.786Z,23.68
2023-04-22T15:17:43.681Z,23.52
2023-04-22T15:20:11.248Z,23.16
2023-04-22T15:22:40.926Z,23.43
2023-04-22T15:25:10.473Z,23.26
2023-04-22T15:27:38.006Z,23.45
2023-04-22T15:30:06.026Z,23.13
2023-04-22T15:32:33.254Z,23.07
2023-04-22T15:35:00.945Z,23.42
2023-04-22T15:37:28.519Z,22.70
2023-04-22T15:39:55.735Z,22.19
2023-04-22T15:42:22.968Z,21.72
2023-04-22T15:44:50.517Z,21.98
2023-04-22T15:47:18.220Z,22.99
2023-04-22T15:49:45.468Z,25.07
2023-04-22T15:52:12.986Z,26.25
2023-04-22T15:54:40.237Z,24.50
2023-04-22T15:57:07.438Z,27.49
2023-04-22T15:59:34.912Z,25.58
2023-04-22T16:02:02.172Z,25.80
2023-04-22T16:04:29.763Z,27.20
2023-04-22T16:06:59.919Z,26.36
2023-04-22T16:09:27.104Z,26.66
2023-04-22T16:11:56.019Z,27.34
2023-04-22T16:14:23.225Z,28.66
2023-04-22T16:16:50.478Z,27.44
2023-04-22T16:19:20.641Z,27.23
2023-04-22T16:21:47.890Z,26.76
2023-04-22T16:24:15.056Z,27.39
2023-04-22T16:26:43.109Z,27.68
2023-04-22T16:29:10.338Z,27.17
2023-04-22T16:31:38.713Z,27.08
2023-04-22T16:34:06.424Z,28.11
2023-04-22T16:36:35.007Z,27.65
2023-04-22T16:39:02.895Z,27.16
2023-04-22T16:41:31.187Z,27.70
2023-04-22T16:43:58.439Z,27.34
2023-04-22T16:46:25.748Z,28.63
2023-04-22T16:48:53.552Z,27.42
2023-04-22T16:51:20.994Z,26.96
2023-04-22T16:53:48.163Z,27.72
2023-04-22T16:56:15.603Z,27.82
2023-04-22T16:58:42.905Z,28.02
2023-04-22T17:01:10.139Z,28.74
2023-04-22T17:03:37.911Z,28.74
2023-04-22T17:06:05.270Z,28.22
2023-04-22T17:08:32.442Z,28.34
2023-04-22T17:10:59.826Z,29.03
2023-04-22T17:13:27.201Z,29.94
2023-04-22T17:15:54.544Z,30.13
2023-04-22T17:18:22.129Z,30.89
2023-04-22T17:20:49.365Z,29.90
2023-04-22T17:23:16.861Z,30.35
2023-04-22T17:25:46.911Z,30.37
2023-04-22T17:28:14.164Z,30.56
2023-04-22T17:30:41.417Z,30.26
2023-04-22T17:33:08.934Z,30.29
2023-04-22T17:35:36.105Z,30.53
2023-04-22T17:38:03.458Z,30.60
2023-04-22T17:40:31.298Z,31.33
2023-04-22T17:42:59.337Z,31.46
2023-04-22T17:45:26.740Z,31.29
2023-04-22T17:47:54.224Z,31.74
2023-04-22T17:50:23.243Z,31.66
2023-04-22T17:52:50.465Z,31.59
2023-04-22T17:55:18.047Z,32.15
2023-04-22T17:57:45.846Z,32.12
2023-04-22T18:00:14.595Z,32.27
2023-04-22T18:02:42.264Z,32.88
2023-04-22T18:05:09.692Z,33.68
2023-04-22T18:07:36.857Z,33.85
2023-04-22T18:10:04.795Z,34.30
2023-04-22T18:12:31.974Z,35.92
2023-04-22T18:14:59.595Z,36.31
2023-04-22T18:17:27.539Z,37.52
2023-04-22T18:20:06.331Z,37.64
2023-04-22T18:22:46.983Z,38.84
2023-04-22T18:25:15.141Z,39.39
2023-04-22T18:27:43.047Z,39.15
2023-04-22T18:30:10.381Z,38.87
2023-04-22T18:32:38.151Z,38.88
2023-04-22T18:35:06.098Z,38.84
2023-04-22T18:37:34.689Z,38.60
2023-04-22T18:40:02.717Z,38.33
2023-04-22T18:42:30.275Z,39.18
2023-04-22T18:44:57.477Z,38.34
2023-04-22T18:47:24.704Z,38.69
2023-04-22T18:49:52.479Z,38.42
2023-04-22T18:52:19.663Z,38.33
2023-04-22T18:54:46.914Z,39.95
2023-04-22T18:57:14.581Z,41.38
2023-04-22T18:59:44.930Z,43.20
2023-04-22T19:02:13.078Z,43.70
2023-04-22T19:04:41.494Z,43.88
2023-04-22T19:07:09.043Z,44.51
2023-04-22T19:09:36.252Z,45.75
2023-04-22T19:12:03.843Z,48.19
2023-04-22T19:14:31.466Z,47.83
2023-04-22T19:16:59.184Z,46.58
2023-04-22T19:19:28.122Z,46.28
2023-04-22T19:21:55.886Z,46.73
2023-04-22T19:24:23.337Z,47.85
2023-04-22T19:26:51.515Z,47.96
2023-04-22T19:29:19.028Z,47.41
2023-04-22T19:31:46.615Z,50.69
2023-04-22T19:34:14.647Z,48.84
2023-04-22T19:36:41.979Z,49.00
2023-04-22T19:39:09.585Z,51.03
2023-04-22T19:41:38.145Z,51.52
2023-04-22T19:44:05.806Z,52.03
2023-04-22T19:46:33.100Z,51.92
2023-04-22T19:49:01.068Z,52.25
2023-04-22T19:51:29.220Z,50.89
2023-04-22T19:53:59.984Z,50.31
2023-04-22T19:56:28.605Z,49.72
2023-04-22T19:58:56.576Z,49.63
2023-04-22T20:01:24.008Z,50.57
2023-04-22T20:03:53.801Z,51.78
2023-04-22T20:06:22.832Z,53.01
2023-04-22T20:08:54.021Z,52.86
2023-04-22T20:11:23.265Z,54.08
2023-04-22T20:13:51.071Z,54.06
2023-04-22T20:16:19.454Z,53.41
2023-04-22T20:18:47.367Z,53.22
2023-04-22T20:21:14.771Z,55.21
2023-04-22T20:23:42.507Z,57.35
2023-04-22T20:26:10.429Z,58.56
2023-04-22T20:28:48.782Z,57.59
2023-04-22T20:31:18.642Z,56.89
2023-04-22T20:33:46.639Z,57.22
2023-04-22T20:36:15.302Z,57.87
2023-04-22T20:38:48.896Z,56.16
2023-04-22T20:41:18.922Z,55.20
2023-04-22T20:43:47.255Z,53.28
2023-04-22T20:46:14.614Z,54.19
2023-04-22T20:48:42.631Z,55.42
2023-04-22T20:51:10.317Z,56.76
2023-04-22T20:53:38.189Z,58.05
2023-04-22T20:56:07.464Z,56.19
2023-04-22T20:58:35.056Z,56.15
2023-04-22T21:01:02.352Z,55.89
2023-04-22T21:03:29.595Z,57.92
2023-04-22T21:05:58.473Z,57.13
2023-04-22T21:08:26.427Z,57.43
2023-04-22T21:10:55.550Z,57.05
2023-04-22T21:13:23.773Z,56.50
2023-04-22T21:15:55.478Z,57.25
2023-04-22T21:18:24.174Z,58.71
2023-04-22T21:20:51.678Z,58.18
2023-04-22T21:23:20.516Z,61.71
2023-04-22T21:25:48.644Z,62.54
2023-04-22T21:28:17.126Z,62.57
2023-04-22T21:30:44.862Z,59.94
2023-04-22T21:33:13.412Z,58.10
2023-04-22T21:35:40.924Z,56.86
2023-04-22T21:38:09.095Z,56.89
2023-04-22T21:40:36.904Z,55.55
2023-04-22T21:43:07.469Z,57.66
2023-04-22T21:45:35.116Z,59.11
2023-04-22T21:48:04.511Z,59.75
2023-04-22T21:50:32.481Z,58.18
2023-04-22T21:53:00.546Z,60.49
2023-04-22T21:55:29.529Z,60.68
2023-04-22T21:57:56.986Z,61.43
2023-04-22T22:00:25.439Z,62.30
2023-04-22T22:02:53.600Z,63.57
2023-04-22T22:05:21.182Z,62.67
2023-04-22T22:07:49.090Z,61.58
2023-04-22T22:10:23.194Z,61.77
2023-04-22T22:12:50.912Z,61.52
2023-04-22T22:15:19.041Z,62.17
2023-04-22T22:17:46.837Z,60.92
2023-04-22T22:20:20.749Z,63.46
2023-04-22T22:22:49.777Z,63.95
2023-04-22T22:25:17.356Z,63.63
2023-04-22T22:27:49.199Z,64.29
2023-04-22T22:30:18.830Z,64.10
2023-04-22T22:32:46.690Z,63.58
2023-04-22T22:35:14.725Z,64.99
2023-04-22T22:37:43.106Z,65.19
2023-04-22T22:40:11.590Z,64.74
2023-04-22T22:42:39.086Z,64.46
2023-04-22T22:45:07.307Z,65.11
2023-04-22T22:47:35.434Z,66.08
2023-04-22T22:50:03.133Z,66.24
2023-04-22T22:52:32.044Z,66.30
2023-04-22T22:54:59.418Z,68.49
2023-04-22T22:57:26.836Z,67.95
2023-04-22T22:59:54.477Z,69.27
2023-04-22T23:02:21.961Z,70.03
2023-04-22T23:04:49.515Z,71.21
2023-04-22T23:07:17.728Z,71.28
2023-04-22T23:09:45.256Z,69.68
2023-04-22T23:12:12.653Z,69.33
2023-04-22T23:14:40.703Z,67.80
2023-04-22T23:17:08.423Z,70.00
2023-04-22T23:19:36.328Z,68.99
2023-04-22T23:22:06.712Z,71.36
2023-04-22T23:24:34.398Z,73.14
2023-04-22T23:27:02.184Z,70.53
2023-04-22T23:29:30.886Z,68.26
2023-04-22T23:32:00.898Z,67.11
2023-04-22T23:34:31.566Z,66.59
2023-04-22T23:36:59.349Z,67.19
2023-04-22T23:39:26.742Z,66.49
2023-04-22T23:41:54.164Z,67.99
2023-04-22T23:44:21.816Z,69.82
2023-04-22T23:46:49.697Z,69.52
2023-04-22T23:49:17.119Z,67.37
2023-04-22T23:51:44.769Z,67.90
2023-04-22T23:54:12.470Z,69.81
2023-04-22T23:56:40.962Z,67.86
2023-04-22T23:59:08.769Z,67.23
